Terminal Aerodrome Forecast
Issued by NWS Charleston, WV

Current Version | Previous Version | Text Only | Print | Product List | Glossary Off
Versions: 1 2 3 4 5 6 7 8 9 10 11 12 13 14 15 16 17 18 19 20 21 22 23 24 25 26 27 28 29 30 31 32 33 34

000
FTUS41 KRLX 191400 AAA
TAFCRW
TAF AMD
KCRW 191430Z 1915/2012 30005KT P6SM BKN015 OVC040
     FM191500 30004KT P6SM SCT015 BKN040
     FM191800 27003KT P6SM SKC=

USA.gov is the U.S. government's official web portal to all federal, state and local government web resources and services.